sensor_id;sensor_type;location;lat;lon;timestamp;pressure;altitude;pressure_sealevel;temperature
67501;BMP180;54349;52.528;19.760;2023-03-23T00:01:22;99875.20;;;23.70
67501;BMP180;54349;52.528;19.760;2023-03-23T00:03:51;99875.20;;;23.74
67501;BMP180;54349;52.528;19.760;2023-03-23T00:06:20;99877.00;;;23.70
67501;BMP180;54349;52.528;19.760;2023-03-23T00:08:50;99879.40;;;23.70
67501;BMP180;54349;52.528;19.760;2023-03-23T00:11:30;99876.40;;;23.74
67501;BMP180;54349;52.528;19.760;2023-03-23T00:14:00;99872.40;;;23.70
67501;BMP180;54349;52.528;19.760;2023-03-23T00:16:32;99871.00;;;23.74
67501;BMP180;54349;52.528;19.760;2023-03-23T00:19:06;99862.60;;;23.72
67501;BMP180;54349;52.528;19.760;2023-03-23T00:21:37;99867.40;;;23.74
67501;BMP180;54349;52.528;19.760;2023-03-23T00:24:13;99863.60;;;23.78
67501;BMP180;54349;52.528;19.760;2023-03-23T00:26:48;99856.00;;;23.74
67501;BMP180;54349;52.528;19.760;2023-03-23T00:29:20;99853.00;;;23.78
67501;BMP180;54349;52.528;19.760;2023-03-23T00:31:51;99848.40;;;23.80
67501;BMP180;54349;52.528;19.760;2023-03-23T00:34:22;99852.20;;;23.72
67501;BMP180;54349;52.528;19.760;2023-03-23T00:36:54;99847.80;;;23.70
67501;BMP180;54349;52.528;19.760;2023-03-23T00:39:26;99843.40;;;23.70
67501;BMP180;54349;52.528;19.760;2023-03-23T00:41:54;99844.20;;;23.60
67501;BMP180;54349;52.528;19.760;2023-03-23T00:44:29;99840.80;;;23.60
67501;BMP180;54349;52.528;19.760;2023-03-23T00:46:58;99834.60;;;23.60
67501;BMP180;54349;52.528;19.760;2023-03-23T00:49:26;99829.80;;;23.50
67501;BMP180;54349;52.528;19.760;2023-03-23T00:51:58;99834.40;;;23.50
67501;BMP180;54349;52.528;19.760;2023-03-23T00:54:27;99830.60;;;23.50
67501;BMP180;54349;52.528;19.760;2023-03-23T00:56:55;99830.60;;;23.44
67501;BMP180;54349;52.528;19.760;2023-03-23T00:59:22;99833.20;;;23.40
67501;BMP180;54349;52.528;19.760;2023-03-23T01:01:51;99828.60;;;23.40
67501;BMP180;54349;52.528;19.760;2023-03-23T01:04:19;99829.00;;;23.40
67501;BMP180;54349;52.528;19.760;2023-03-23T01:06:50;99828.40;;;23.40
67501;BMP180;54349;52.528;19.760;2023-03-23T01:09:20;99823.80;;;23.30
67501;BMP180;54349;52.528;19.760;2023-03-23T01:11:52;99825.40;;;23.30
67501;BMP180;54349;52.528;19.760;2023-03-23T01:14:21;99825.20;;;23.30
67501;BMP180;54349;52.528;19.760;2023-03-23T01:16:51;99817.80;;;23.24
67501;BMP180;54349;52.528;19.760;2023-03-23T01:19:18;99818.40;;;23.20
67501;BMP180;54349;52.528;19.760;2023-03-23T01:21:45;99821.60;;;23.20
67501;BMP180;54349;52.528;19.760;2023-03-23T01:24:12;99823.20;;;23.20
67501;BMP180;54349;52.528;19.760;2023-03-23T01:26:39;99822.60;;;23.16
67501;BMP180;54349;52.528;19.760;2023-03-23T01:29:06;99812.80;;;23.10
67501;BMP180;54349;52.528;19.760;2023-03-23T01:31:35;99810.20;;;23.10
67501;BMP180;54349;52.528;19.760;2023-03-23T01:34:04;99807.20;;;23.10
67501;BMP180;54349;52.528;19.760;2023-03-23T01:36:31;99802.40;;;23.06
67501;BMP180;54349;52.528;19.760;2023-03-23T01:39:05;99800.20;;;23.00
67501;BMP180;54349;52.528;19.760;2023-03-23T01:41:34;99802.20;;;23.00
67501;BMP180;54349;52.528;19.760;2023-03-23T01:47:21;99796.60;;;23.00
67501;BMP180;54349;52.528;19.760;2023-03-23T01:49:52;99801.00;;;22.90
67501;BMP180;54349;52.528;19.760;2023-03-23T01:52:27;99799.40;;;22.90
67501;BMP180;54349;52.528;19.760;2023-03-23T01:55:02;99804.20;;;22.90
67501;BMP180;54349;52.528;19.760;2023-03-23T01:57:30;99805.40;;;22.90
67501;BMP180;54349;52.528;19.760;2023-03-23T02:00:08;99812.00;;;22.88
67501;BMP180;54349;52.528;19.760;2023-03-23T02:02:49;99809.20;;;22.80
67501;BMP180;54349;52.528;19.760;2023-03-23T02:05:26;99803.40;;;22.80
67501;BMP180;54349;52.528;19.760;2023-03-23T02:07:59;99803.00;;;22.80
67501;BMP180;54349;52.528;19.760;2023-03-23T02:10:33;99809.20;;;22.80
67501;BMP180;54349;52.528;19.760;2023-03-23T02:13:03;99804.40;;;22.70
67501;BMP180;54349;52.528;19.760;2023-03-23T02:15:45;99811.00;;;22.70
67501;BMP180;54349;52.528;19.760;2023-03-23T02:18:33;99813.40;;;22.70
67501;BMP180;54349;52.528;19.760;2023-03-23T02:27:20;99801.20;;;22.60
67501;BMP180;54349;52.528;19.760;2023-03-23T02:39:09;99824.40;;;22.50
67501;BMP180;54349;52.528;19.760;2023-03-23T02:42:05;99824.60;;;22.50
67501;BMP180;54349;52.528;19.760;2023-03-23T02:44:38;99817.80;;;22.42
67501;BMP180;54349;52.528;19.760;2023-03-23T02:47:23;99809.20;;;22.40
67501;BMP180;54349;52.528;19.760;2023-03-23T02:49:55;99806.60;;;22.40
67501;BMP180;54349;52.528;19.760;2023-03-23T02:52:31;99799.20;;;22.40
67501;BMP180;54349;52.528;19.760;2023-03-23T02:55:00;99788.80;;;22.40
67501;BMP180;54349;52.528;19.760;2023-03-23T02:57:29;99794.00;;;22.36
67501;BMP180;54349;52.528;19.760;2023-03-23T02:59:58;99791.60;;;22.30
67501;BMP180;54349;52.528;19.760;2023-03-23T03:02:33;99787.80;;;22.30
67501;BMP180;54349;52.528;19.760;2023-03-23T03:11:08;99784.20;;;22.30
67501;BMP180;54349;52.528;19.760;2023-03-23T03:16:29;99789.60;;;22.20
67501;BMP180;54349;52.528;19.760;2023-03-23T03:19:11;99790.80;;;22.20
67501;BMP180;54349;52.528;19.760;2023-03-23T03:21:46;99788.80;;;22.20
67501;BMP180;54349;52.528;19.760;2023-03-23T03:24:20;99792.80;;;22.20
67501;BMP180;54349;52.528;19.760;2023-03-23T03:26:54;99786.60;;;22.14
67501;BMP180;54349;52.528;19.760;2023-03-23T03:29:40;99776.20;;;22.10
67501;BMP180;54349;52.528;19.760;2023-03-23T03:32:14;99778.40;;;22.10
67501;BMP180;54349;52.528;19.760;2023-03-23T03:34:43;99778.80;;;22.10
67501;BMP180;54349;52.528;19.760;2023-03-23T03:37:12;99782.60;;;22.10
67501;BMP180;54349;52.528;19.760;2023-03-23T03:39:39;99787.20;;;22.10
67501;BMP180;54349;52.528;19.760;2023-03-23T03:42:07;99792.20;;;22.06
67501;BMP180;54349;52.528;19.760;2023-03-23T03:44:34;99797.40;;;22.00
67501;BMP180;54349;52.528;19.760;2023-03-23T03:47:02;99794.40;;;22.00
67501;BMP180;54349;52.528;19.760;2023-03-23T03:49:29;99794.60;;;22.00
67501;BMP180;54349;52.528;19.760;2023-03-23T03:51:57;99790.00;;;22.00
67501;BMP180;54349;52.528;19.760;2023-03-23T03:54:33;99791.60;;;22.00
67501;BMP180;54349;52.528;19.760;2023-03-23T03:57:01;99787.60;;;22.00
67501;BMP180;54349;52.528;19.760;2023-03-23T03:59:47;99785.00;;;22.00
67501;BMP180;54349;52.528;19.760;2023-03-23T04:02:33;99778.40;;;21.90
67501;BMP180;54349;52.528;19.760;2023-03-23T04:05:00;99779.60;;;21.90
67501;BMP180;54349;52.528;19.760;2023-03-23T04:07:31;99775.20;;;21.90
67501;BMP180;54349;52.528;19.760;2023-03-23T04:09:59;99772.60;;;21.90
67501;BMP180;54349;52.528;19.760;2023-03-23T04:12:26;99768.80;;;21.90
67501;BMP180;54349;52.528;19.760;2023-03-23T04:14:56;99763.60;;;21.82
67501;BMP180;54349;52.528;19.760;2023-03-23T04:17:27;99758.60;;;21.80
67501;BMP180;54349;52.528;19.760;2023-03-23T04:19:55;99757.80;;;21.80
67501;BMP180;54349;52.528;19.760;2023-03-23T04:22:27;99755.40;;;21.80
67501;BMP180;54349;52.528;19.760;2023-03-23T04:25:01;99768.40;;;21.78
67501;BMP180;54349;52.528;19.760;2023-03-23T04:27:32;99767.80;;;21.78
67501;BMP180;54349;52.528;19.760;2023-03-23T04:30:01;99764.80;;;21.70
67501;BMP180;54349;52.528;19.760;2023-03-23T04:32:41;99769.40;;;21.70
67501;BMP180;54349;52.528;19.760;2023-03-23T04:35:13;99769.80;;;21.70
67501;BMP180;54349;52.528;19.760;2023-03-23T04:38:01;99765.40;;;21.70
67501;BMP180;54349;52.528;19.760;2023-03-23T04:40:28;99763.80;;;21.70
67501;BMP180;54349;52.528;19.760;2023-03-23T04:43:03;99761.60;;;21.70
67501;BMP180;54349;52.528;19.760;2023-03-23T04:45:55;99756.80;;;21.80
67501;BMP180;54349;52.528;19.760;2023-03-23T04:48:29;99759.00;;;21.82
67501;BMP180;54349;52.528;19.760;2023-03-23T04:51:06;99755.20;;;21.90
67501;BMP180;54349;52.528;19.760;2023-03-23T04:53:33;99754.00;;;21.90
67501;BMP180;54349;52.528;19.760;2023-03-23T04:56:01;99751.20;;;21.96
67501;BMP180;54349;52.528;19.760;2023-03-23T04:58:33;99750.60;;;22.04
67501;BMP180;54349;52.528;19.760;2023-03-23T05:01:22;99752.20;;;22.20
67501;BMP180;54349;52.528;19.760;2023-03-23T05:04:08;99756.60;;;22.20
67501;BMP180;54349;52.528;19.760;2023-03-23T05:06:35;99752.80;;;22.30
67501;BMP180;54349;52.528;19.760;2023-03-23T05:09:08;99751.20;;;22.30
67501;BMP180;54349;52.528;19.760;2023-03-23T05:11:35;99751.20;;;22.38
67501;BMP180;54349;52.528;19.760;2023-03-23T05:14:04;99749.00;;;22.30
67501;BMP180;54349;52.528;19.760;2023-03-23T05:16:32;99748.80;;;22.30
67501;BMP180;54349;52.528;19.760;2023-03-23T05:18:59;99747.40;;;22.34
67501;BMP180;54349;52.528;19.760;2023-03-23T05:21:27;99750.40;;;22.40
67501;BMP180;54349;52.528;19.760;2023-03-23T05:23:55;99749.20;;;22.40
67501;BMP180;54349;52.528;19.760;2023-03-23T05:26:23;99745.80;;;22.40
67501;BMP180;54349;52.528;19.760;2023-03-23T05:28:58;99743.40;;;22.40
67501;BMP180;54349;52.528;19.760;2023-03-23T05:31:39;99744.00;;;22.32
67501;BMP180;54349;52.528;19.760;2023-03-23T05:34:07;99744.00;;;22.30
67501;BMP180;54349;52.528;19.760;2023-03-23T05:36:45;99750.20;;;22.30
67501;BMP180;54349;52.528;19.760;2023-03-23T05:39:25;99748.60;;;22.30
67501;BMP180;54349;52.528;19.760;2023-03-23T05:42:07;99742.60;;;22.30
67501;BMP180;54349;52.528;19.760;2023-03-23T05:44:45;99741.00;;;22.30
67501;BMP180;54349;52.528;19.760;2023-03-23T05:47:12;99748.20;;;22.28
67501;BMP180;54349;52.528;19.760;2023-03-23T05:49:41;99752.20;;;22.20
67501;BMP180;54349;52.528;19.760;2023-03-23T05:52:10;99753.60;;;22.20
67501;BMP180;54349;52.528;19.760;2023-03-23T05:54:37;99746.00;;;22.20
67501;BMP180;54349;52.528;19.760;2023-03-23T05:57:05;99739.20;;;22.20
67501;BMP180;54349;52.528;19.760;2023-03-23T05:59:41;99739.80;;;22.16
67501;BMP180;54349;52.528;19.760;2023-03-23T06:02:13;99748.80;;;22.10
67501;BMP180;54349;52.528;19.760;2023-03-23T06:04:42;99759.00;;;22.10
67501;BMP180;54349;52.528;19.760;2023-03-23T06:07:20;99763.60;;;22.10
67501;BMP180;54349;52.528;19.760;2023-03-23T06:10:09;99759.80;;;22.08
67501;BMP180;54349;52.528;19.760;2023-03-23T06:12:39;99759.60;;;22.00
67501;BMP180;54349;52.528;19.760;2023-03-23T06:15:25;99756.60;;;22.00
67501;BMP180;54349;52.528;19.760;2023-03-23T06:18:15;99751.20;;;21.98
67501;BMP180;54349;52.528;19.760;2023-03-23T06:21:06;99747.60;;;21.90
67501;BMP180;54349;52.528;19.760;2023-03-23T06:24:01;99743.20;;;21.90
67501;BMP180;54349;52.528;19.760;2023-03-23T06:26:38;99734.40;;;21.90
67501;BMP180;54349;52.528;19.760;2023-03-23T06:29:08;99729.80;;;21.90
67501;BMP180;54349;52.528;19.760;2023-03-23T06:31:49;99738.80;;;21.90
67501;BMP180;54349;52.528;19.760;2023-03-23T06:34:19;99739.20;;;21.90
67501;BMP180;54349;52.528;19.760;2023-03-23T06:37:15;99747.80;;;21.80
67501;BMP180;54349;52.528;19.760;2023-03-23T06:40:06;99747.80;;;21.80
67501;BMP180;54349;52.528;19.760;2023-03-23T06:42:39;99747.80;;;21.80
67501;BMP180;54349;52.528;19.760;2023-03-23T06:45:26;99742.20;;;21.80
67501;BMP180;54349;52.528;19.760;2023-03-23T06:48:12;99746.00;;;21.90
67501;BMP180;54349;52.528;19.760;2023-03-23T06:50:45;99745.40;;;21.90
67501;BMP180;54349;52.528;19.760;2023-03-23T06:53:15;99745.80;;;22.00
67501;BMP180;54349;52.528;19.760;2023-03-23T06:55:44;99746.40;;;22.00
67501;BMP180;54349;52.528;19.760;2023-03-23T06:58:13;99746.20;;;22.10
67501;BMP180;54349;52.528;19.760;2023-03-23T07:00:40;99748.00;;;22.12
67501;BMP180;54349;52.528;19.760;2023-03-23T07:03:08;99747.40;;;22.20
67501;BMP180;54349;52.528;19.760;2023-03-23T07:05:37;99744.40;;;22.20
67501;BMP180;54349;52.528;19.760;2023-03-23T07:08:05;99749.20;;;22.30
67501;BMP180;54349;52.528;19.760;2023-03-23T07:10:40;99747.80;;;22.30
67501;BMP180;54349;52.528;19.760;2023-03-23T07:13:09;99745.40;;;22.40
67501;BMP180;54349;52.528;19.760;2023-03-23T07:15:48;99750.80;;;22.40
67501;BMP180;54349;52.528;19.760;2023-03-23T07:18:17;99752.60;;;22.44
67501;BMP180;54349;52.528;19.760;2023-03-23T07:20:52;99747.40;;;22.50
67501;BMP180;54349;52.528;19.760;2023-03-23T07:23:20;99740.20;;;22.50
67501;BMP180;54349;52.528;19.760;2023-03-23T07:25:57;99735.00;;;22.60
67501;BMP180;54349;52.528;19.760;2023-03-23T07:28:30;99731.20;;;22.60
67501;BMP180;54349;52.528;19.760;2023-03-23T07:31:01;99734.40;;;22.60
67501;BMP180;54349;52.528;19.760;2023-03-23T07:33:29;99728.80;;;22.66
67501;BMP180;54349;52.528;19.760;2023-03-23T07:35:59;99729.00;;;22.70
67501;BMP180;54349;52.528;19.760;2023-03-23T07:38:31;99730.40;;;22.70
67501;BMP180;54349;52.528;19.760;2023-03-23T07:40:59;99723.20;;;22.80
67501;BMP180;54349;52.528;19.760;2023-03-23T07:43:27;99713.20;;;22.80
67501;BMP180;54349;52.528;19.760;2023-03-23T07:46:15;99716.60;;;22.80
67501;BMP180;54349;52.528;19.760;2023-03-23T07:48:59;99722.60;;;22.90
67501;BMP180;54349;52.528;19.760;2023-03-23T07:51:34;99713.60;;;22.90
67501;BMP180;54349;52.528;19.760;2023-03-23T07:54:02;99717.80;;;22.90
67501;BMP180;54349;52.528;19.760;2023-03-23T07:56:47;99712.00;;;23.00
67501;BMP180;54349;52.528;19.760;2023-03-23T07:59:24;99719.60;;;23.00
67501;BMP180;54349;52.528;19.760;2023-03-23T08:01:52;99719.20;;;23.00
67501;BMP180;54349;52.528;19.760;2023-03-23T08:04:43;99714.20;;;23.08
67501;BMP180;54349;52.528;19.760;2023-03-23T08:07:30;99714.60;;;23.10
67501;BMP180;54349;52.528;19.760;2023-03-23T08:10:09;99707.40;;;23.10
67501;BMP180;54349;52.528;19.760;2023-03-23T08:12:56;99708.80;;;23.20
67501;BMP180;54349;52.528;19.760;2023-03-23T08:15:43;99709.40;;;23.20
67501;BMP180;54349;52.528;19.760;2023-03-23T08:18:11;99708.60;;;23.30
67501;BMP180;54349;52.528;19.760;2023-03-23T08:20:57;99712.20;;;23.30
67501;BMP180;54349;52.528;19.760;2023-03-23T08:23:33;99712.00;;;23.30
67501;BMP180;54349;52.528;19.760;2023-03-23T08:26:19;99708.00;;;23.38
67501;BMP180;54349;52.528;19.760;2023-03-23T08:29:06;99713.40;;;23.40
67501;BMP180;54349;52.528;19.760;2023-03-23T08:32:06;99714.80;;;23.40
67501;BMP180;54349;52.528;19.760;2023-03-23T08:34:55;99707.20;;;23.40
67501;BMP180;54349;52.528;19.760;2023-03-23T08:37:22;99703.20;;;23.48
67501;BMP180;54349;52.528;19.760;2023-03-23T08:40:03;99692.80;;;23.50
67501;BMP180;54349;52.528;19.760;2023-03-23T08:43:01;99685.60;;;23.50
67501;BMP180;54349;52.528;19.760;2023-03-23T08:45:47;99686.20;;;23.60
67501;BMP180;54349;52.528;19.760;2023-03-23T08:48:14;99692.20;;;23.60
67501;BMP180;54349;52.528;19.760;2023-03-23T08:50:56;99689.60;;;23.60
67501;BMP180;54349;52.528;19.760;2023-03-23T08:53:42;99685.40;;;23.66
67501;BMP180;54349;52.528;19.760;2023-03-23T08:56:34;99683.20;;;23.70
67501;BMP180;54349;52.528;19.760;2023-03-23T08:59:01;99675.40;;;23.70
67501;BMP180;54349;52.528;19.760;2023-03-23T09:01:51;99680.40;;;23.70
67501;BMP180;54349;52.528;19.760;2023-03-23T09:04:23;99682.40;;;23.80
67501;BMP180;54349;52.528;19.760;2023-03-23T09:06:50;99684.40;;;23.80
67501;BMP180;54349;52.528;19.760;2023-03-23T09:09:17;99687.60;;;23.80
67501;BMP180;54349;52.528;19.760;2023-03-23T09:11:44;99680.40;;;23.80
67501;BMP180;54349;52.528;19.760;2023-03-23T09:14:12;99681.00;;;23.86
67501;BMP180;54349;52.528;19.760;2023-03-23T09:16:39;99681.80;;;23.90
67501;BMP180;54349;52.528;19.760;2023-03-23T09:19:07;99683.40;;;23.90
67501;BMP180;54349;52.528;19.760;2023-03-23T09:21:35;99677.80;;;23.90
67501;BMP180;54349;52.528;19.760;2023-03-23T09:24:03;99685.00;;;23.90
67501;BMP180;54349;52.528;19.760;2023-03-23T09:26:31;99687.60;;;23.98
67501;BMP180;54349;52.528;19.760;2023-03-23T09:28:58;99677.20;;;24.00
67501;BMP180;54349;52.528;19.760;2023-03-23T09:31:25;99674.40;;;24.00
67501;BMP180;54349;52.528;19.760;2023-03-23T09:33:54;99673.80;;;24.00
67501;BMP180;54349;52.528;19.760;2023-03-23T09:36:23;99669.40;;;24.08
67501;BMP180;54349;52.528;19.760;2023-03-23T09:38:52;99666.80;;;24.10
67501;BMP180;54349;52.528;19.760;2023-03-23T09:44:49;99652.40;;;24.10
67501;BMP180;54349;52.528;19.760;2023-03-23T09:50:27;99657.60;;;24.20
67501;BMP180;54349;52.528;19.760;2023-03-23T09:53:19;99665.40;;;24.20
67501;BMP180;54349;52.528;19.760;2023-03-23T09:55:47;99668.00;;;24.20
67501;BMP180;54349;52.528;19.760;2023-03-23T09:58:33;99658.80;;;24.20
67501;BMP180;54349;52.528;19.760;2023-03-23T10:01:42;99671.40;;;24.30
67501;BMP180;54349;52.528;19.760;2023-03-23T10:04:41;99664.60;;;24.30
67501;BMP180;54349;52.528;19.760;2023-03-23T10:07:18;99672.60;;;24.38
67501;BMP180;54349;52.528;19.760;2023-03-23T10:09:53;99669.20;;;24.40
67501;BMP180;54349;52.528;19.760;2023-03-23T10:12:48;99668.80;;;24.40
67501;BMP180;54349;52.528;19.760;2023-03-23T10:15:26;99680.20;;;24.50
67501;BMP180;54349;52.528;19.760;2023-03-23T10:18:01;99679.20;;;24.50
67501;BMP180;54349;52.528;19.760;2023-03-23T10:20:37;99683.60;;;24.50
67501;BMP180;54349;52.528;19.760;2023-03-23T10:23:44;99681.00;;;24.52
67501;BMP180;54349;52.528;19.760;2023-03-23T10:29:08;99660.60;;;24.60
67501;BMP180;54349;52.528;19.760;2023-03-23T10:31:48;99656.80;;;24.64
67501;BMP180;54349;52.528;19.760;2023-03-23T10:34:29;99649.80;;;24.70
67501;BMP180;54349;52.528;19.760;2023-03-23T10:37:16;99651.20;;;24.70
67501;BMP180;54349;52.528;19.760;2023-03-23T10:39:58;99649.20;;;24.70
67501;BMP180;54349;52.528;19.760;2023-03-23T10:42:35;99639.80;;;24.80
67501;BMP180;54349;52.528;19.760;2023-03-23T10:47:54;99644.20;;;24.80
67501;BMP180;54349;52.528;19.760;2023-03-23T10:50:32;99642.20;;;24.80
67501;BMP180;54349;52.528;19.760;2023-03-23T10:53:13;99629.80;;;24.82
67501;BMP180;54349;52.528;19.760;2023-03-23T10:55:43;99626.20;;;24.90
67501;BMP180;54349;52.528;19.760;2023-03-23T10:58:34;99611.00;;;24.90
67501;BMP180;54349;52.528;19.760;2023-03-23T11:01:04;99603.60;;;24.90
67501;BMP180;54349;52.528;19.760;2023-03-23T11:03:40;99589.40;;;24.90
67501;BMP180;54349;52.528;19.760;2023-03-23T11:06:10;99598.40;;;24.98
67501;BMP180;54349;52.528;19.760;2023-03-23T11:09:01;99598.20;;;25.00
67501;BMP180;54349;52.528;19.760;2023-03-23T11:11:36;99606.80;;;25.00
67501;BMP180;54349;52.528;19.760;2023-03-23T11:14:27;99597.80;;;25.00
67501;BMP180;54349;52.528;19.760;2023-03-23T11:17:01;99593.40;;;25.10
67501;BMP180;54349;52.528;19.760;2023-03-23T11:19:32;99583.80;;;25.10
67501;BMP180;54349;52.528;19.760;2023-03-23T11:22:19;99579.40;;;25.10
67501;BMP180;54349;52.528;19.760;2023-03-23T11:24:54;99586.00;;;25.10
67501;BMP180;54349;52.528;19.760;2023-03-23T11:27:24;99594.40;;;25.20
67501;BMP180;54349;52.528;19.760;2023-03-23T11:30:07;99598.00;;;25.20
67501;BMP180;54349;52.528;19.760;2023-03-23T11:32:36;99602.00;;;25.20
67501;BMP180;54349;52.528;19.760;2023-03-23T11:35:16;99596.20;;;25.20
67501;BMP180;54349;52.528;19.760;2023-03-23T11:37:52;99591.60;;;25.30
67501;BMP180;54349;52.528;19.760;2023-03-23T11:40:31;99608.80;;;25.30
67501;BMP180;54349;52.528;19.760;2023-03-23T11:43:14;99610.00;;;25.30
67501;BMP180;54349;52.528;19.760;2023-03-23T11:46:11;99609.60;;;25.30
67501;BMP180;54349;52.528;19.760;2023-03-23T11:51:31;99629.00;;;25.30
67501;BMP180;54349;52.528;19.760;2023-03-23T11:54:26;99622.00;;;25.30
67501;BMP180;54349;52.528;19.760;2023-03-23T11:56:55;99625.20;;;25.30
67501;BMP180;54349;52.528;19.760;2023-03-23T11:59:32;99625.40;;;25.30
67501;BMP180;54349;52.528;19.760;2023-03-23T12:17:29;99639.80;;;25.08
67501;BMP180;54349;52.528;19.760;2023-03-23T12:20:30;99633.60;;;25.00
67501;BMP180;54349;52.528;19.760;2023-03-23T12:23:16;99636.40;;;25.00
67501;BMP180;54349;52.528;19.760;2023-03-23T12:29:12;99638.40;;;25.00
67501;BMP180;54349;52.528;19.760;2023-03-23T12:34:40;99640.40;;;25.00
67501;BMP180;54349;52.528;19.760;2023-03-23T12:48:49;99649.00;;;24.90
67501;BMP180;54349;52.528;19.760;2023-03-23T12:51:43;99650.60;;;24.90
67501;BMP180;54349;52.528;19.760;2023-03-23T12:54:26;99650.20;;;24.90
67501;BMP180;54349;52.528;19.760;2023-03-23T12:57:20;99653.20;;;24.90
67501;BMP180;54349;52.528;19.760;2023-03-23T12:59:53;99651.40;;;24.90
67501;BMP180;54349;52.528;19.760;2023-03-23T13:02:37;99645.60;;;24.90
67501;BMP180;54349;52.528;19.760;2023-03-23T13:05:53;99643.40;;;24.90
67501;BMP180;54349;52.528;19.760;2023-03-23T13:08:39;99643.60;;;24.90
67501;BMP180;54349;52.528;19.760;2023-03-23T13:11:19;99642.20;;;24.96
67501;BMP180;54349;52.528;19.760;2023-03-23T13:13:52;99636.80;;;25.00
67501;BMP180;54349;52.528;19.760;2023-03-23T13:19:24;99633.60;;;25.00
67501;BMP180;54349;52.528;19.760;2023-03-23T13:22:07;99643.00;;;25.00
67501;BMP180;54349;52.528;19.760;2023-03-23T13:24:56;99646.40;;;25.00
67501;BMP180;54349;52.528;19.760;2023-03-23T13:27:26;99647.40;;;25.00
67501;BMP180;54349;52.528;19.760;2023-03-23T13:29:57;99647.80;;;25.00
67501;BMP180;54349;52.528;19.760;2023-03-23T13:32:39;99652.00;;;25.00
67501;BMP180;54349;52.528;19.760;2023-03-23T13:35:18;99657.60;;;25.00
67501;BMP180;54349;52.528;19.760;2023-03-23T13:37:51;99663.00;;;25.00
67501;BMP180;54349;52.528;19.760;2023-03-23T13:40:29;99668.80;;;24.98
67501;BMP180;54349;52.528;19.760;2023-03-23T13:43:01;99672.00;;;24.82
67501;BMP180;54349;52.528;19.760;2023-03-23T13:45:46;99687.00;;;24.70
67501;BMP180;54349;52.528;19.760;2023-03-23T13:50:50;99684.60;;;24.40
67501;BMP180;54349;52.528;19.760;2023-03-23T13:53:45;99686.80;;;24.20
67501;BMP180;54349;52.528;19.760;2023-03-23T13:56:19;99687.00;;;24.04
67501;BMP180;54349;52.528;19.760;2023-03-23T13:59:04;99686.60;;;23.90
67501;BMP180;54349;52.528;19.760;2023-03-23T14:01:37;99685.60;;;23.70
67501;BMP180;54349;52.528;19.760;2023-03-23T14:04:18;99688.80;;;23.60
67501;BMP180;54349;52.528;19.760;2023-03-23T14:06:49;99682.40;;;23.50
67501;BMP180;54349;52.528;19.760;2023-03-23T14:09:32;99678.00;;;23.40
67501;BMP180;54349;52.528;19.760;2023-03-23T14:12:04;99681.80;;;23.30
67501;BMP180;54349;52.528;19.760;2023-03-23T14:14:47;99681.80;;;23.20
67501;BMP180;54349;52.528;19.760;2023-03-23T14:17:24;99686.20;;;23.16
67501;BMP180;54349;52.528;19.760;2023-03-23T14:19:56;99689.40;;;23.08
67501;BMP180;54349;52.528;19.760;2023-03-23T14:22:36;99687.00;;;22.96
67501;BMP180;54349;52.528;19.760;2023-03-23T14:25:18;99692.20;;;22.80
67501;BMP180;54349;52.528;19.760;2023-03-23T14:27:47;99694.20;;;22.80
67501;BMP180;54349;52.528;19.760;2023-03-23T14:30:22;99695.40;;;22.70
67501;BMP180;54349;52.528;19.760;2023-03-23T14:32:52;99694.60;;;22.62
67501;BMP180;54349;52.528;19.760;2023-03-23T14:35:28;99694.00;;;22.60
67501;BMP180;54349;52.528;19.760;2023-03-23T14:37:57;99699.60;;;22.60
67501;BMP180;54349;52.528;19.760;2023-03-23T14:40:29;99698.20;;;22.52
67501;BMP180;54349;52.528;19.760;2023-03-23T14:42:59;99698.80;;;22.50
67501;BMP180;54349;52.528;19.760;2023-03-23T14:45:26;99705.40;;;22.50
67501;BMP180;54349;52.528;19.760;2023-03-23T14:48:02;99706.80;;;22.50
67501;BMP180;54349;52.528;19.760;2023-03-23T14:53:16;99713.40;;;22.46
67501;BMP180;54349;52.528;19.760;2023-03-23T14:55:48;99707.40;;;22.40
67501;BMP180;54349;52.528;19.760;2023-03-23T14:58:21;99711.40;;;22.40
67501;BMP180;54349;52.528;19.760;2023-03-23T15:00:59;99713.60;;;22.30
67501;BMP180;54349;52.528;19.760;2023-03-23T15:03:33;99714.80;;;22.24
67501;BMP180;54349;52.528;19.760;2023-03-23T15:06:12;99714.60;;;22.20
67501;BMP180;54349;52.528;19.760;2023-03-23T15:08:41;99707.80;;;22.20
67501;BMP180;54349;52.528;19.760;2023-03-23T15:13:53;99721.40;;;22.30
67501;BMP180;54349;52.528;19.760;2023-03-23T15:16:30;99714.20;;;22.30
67501;BMP180;54349;52.528;19.760;2023-03-23T15:19:06;99705.80;;;22.30
67501;BMP180;54349;52.528;19.760;2023-03-23T15:24:44;99709.40;;;22.30
67501;BMP180;54349;52.528;19.760;2023-03-23T15:27:24;99708.60;;;22.32
67501;BMP180;54349;52.528;19.760;2023-03-23T15:29:58;99713.80;;;22.40
67501;BMP180;54349;52.528;19.760;2023-03-23T15:32:38;99718.20;;;22.40
67501;BMP180;54349;52.528;19.760;2023-03-23T15:35:17;99725.40;;;22.40
67501;BMP180;54349;52.528;19.760;2023-03-23T15:37:58;99719.20;;;22.40
67501;BMP180;54349;52.528;19.760;2023-03-23T15:40:32;99719.40;;;22.40
67501;BMP180;54349;52.528;19.760;2023-03-23T15:43:20;99718.20;;;22.50
67501;BMP180;54349;52.528;19.760;2023-03-23T15:48:51;99716.00;;;22.52
67501;BMP180;54349;52.528;19.760;2023-03-23T15:51:21;99724.00;;;22.60
67501;BMP180;54349;52.528;19.760;2023-03-23T15:53:53;99724.00;;;22.60
67501;BMP180;54349;52.528;19.760;2023-03-23T15:56:20;99716.60;;;22.60
67501;BMP180;54349;52.528;19.760;2023-03-23T15:58:49;99714.20;;;22.64
67501;BMP180;54349;52.528;19.760;2023-03-23T16:01:24;99708.00;;;22.70
67501;BMP180;54349;52.528;19.760;2023-03-23T16:04:03;99705.20;;;22.70
67501;BMP180;54349;52.528;19.760;2023-03-23T16:06:34;99711.60;;;22.70
67501;BMP180;54349;52.528;19.760;2023-03-23T16:09:06;99714.60;;;22.70
67501;BMP180;54349;52.528;19.760;2023-03-23T16:11:38;99711.20;;;22.76
67501;BMP180;54349;52.528;19.760;2023-03-23T16:14:07;99714.40;;;22.80
67501;BMP180;54349;52.528;19.760;2023-03-23T16:16:45;99713.20;;;22.80